Time;durP1;ratioP1;P1;durP2;ratioP2;P2;SDS_P1;SDS_P2;PMS_P1;PMS_P2;Temp;Humidity;BMP_temperature;BMP_pressure;BME280_temperature;BME280_humidity;BME280_pressure;Samples;Min_cycle;Max_cycle;Signal;HPM_P1;HPM_P2
2023/06/17 00:00:32;;;;;;;14.60;12.52;;;410.50;2355.20;;;;;;5052650;28;20502;-62
2023/06/17 00:02:57;;;;;;;15.60;13.35;;;410.50;2355.20;;;;;;5057403;28;20044;-62
2023/06/17 00:05:24;;;;;;;14.80;12.18;;;410.50;2355.20;;;;;;5048217;28;20040;-62
2023/06/17 00:07:51;;;;;;;23.63;12.35;;;410.50;2355.20;;;;;;5048184;28;20033;-62
2023/06/17 00:10:17;;;;;;;16.48;12.65;;;410.50;2355.20;;;;;;5048345;28;20025;-62
2023/06/17 00:12:43;;;;;;;15.85;12.75;;;410.50;2355.20;;;;;;5051753;28;20079;-62
2023/06/17 00:15:10;;;;;;;15.60;11.63;;;410.50;2355.20;;;;;;5051928;28;20021;-62
2023/06/17 00:17:36;;;;;;;13.85;11.40;;;410.50;2355.20;;;;;;5064483;28;20528;-62
2023/06/17 00:20:11;;;;;;;15.85;12.32;;;410.50;2355.20;;;;;;5071765;28;20032;-62
2023/06/17 00:22:38;;;;;;;17.52;14.48;;;410.50;2355.20;;;;;;5071932;28;20029;-65
2023/06/17 00:25:05;;;;;;;14.57;12.85;;;410.50;2355.20;;;;;;5071992;28;20052;-62
2023/06/17 00:27:31;;;;;;;16.58;11.77;;;435.20;2355.20;;;;;;5072043;28;20028;-61
2023/06/17 00:30:00;;;;;;;15.93;12.73;;;435.20;2355.20;;;;;;5071521;28;20085;-62
2023/06/17 00:32:32;;;;;;;16.42;13.65;;;435.20;2355.20;;;;;;5071628;28;20029;-63
2023/06/17 00:34:58;;;;;;;18.08;14.18;;;435.20;2355.20;;;;;;5071639;28;20572;-63
2023/06/17 00:37:23;;;;;;;19.30;13.95;;;435.20;2355.20;;;;;;5071244;28;20058;-62
2023/06/17 00:39:49;;;;;;;16.90;14.07;;;435.20;2355.20;;;;;;5071589;28;20055;-62
2023/06/17 00:42:15;;;;;;;18.38;13.63;;;435.20;2355.20;;;;;;5071026;28;20016;-64
2023/06/17 00:44:41;;;;;;;18.65;14.30;;;435.20;2355.20;;;;;;5071937;28;20027;-62
2023/06/17 00:47:10;;;;;;;16.17;13.95;;;435.30;2355.20;;;;;;5071699;28;20021;-63
2023/06/17 00:49:39;;;;;;;17.23;15.38;;;435.30;2355.20;;;;;;5071888;28;20079;-62
2023/06/17 00:52:09;;;;;;;15.57;13.55;;;435.20;2355.20;;;;;;5071729;28;20032;-63
2023/06/17 00:54:40;;;;;;;19.05;14.85;;;435.30;2355.20;;;;;;5071589;28;20031;-63
2023/06/17 00:57:13;;;;;;;19.35;15.82;;;435.30;2355.20;;;;;;5071170;28;20024;-64
2023/06/17 00:59:40;;;;;;;14.80;13.30;;;435.20;2355.20;;;;;;5071272;28;20048;-63
2023/06/17 01:02:09;;;;;;;15.13;13.38;;;410.50;2355.20;;;;;;5071067;28;20060;-63
2023/06/17 01:04:37;;;;;;;19.33;14.25;;;410.50;2355.20;;;;;;5070389;28;20106;-64
2023/06/17 01:07:27;;;;;;;16.70;14.02;;;410.50;2355.20;;;;;;5071099;28;20041;-62
2023/06/17 01:10:00;;;;;;;15.95;14.27;;;410.50;2355.20;;;;;;5071020;28;20017;-62
2023/06/17 01:12:27;;;;;;;;;;;410.50;2355.20;;;;;;5071408;28;20112;-64
2023/06/17 01:14:57;;;;;;;19.38;15.10;;;410.50;2355.20;;;;;;5071303;28;19985;-62
2023/06/17 01:17:25;;;;;;;17.38;14.05;;;410.50;2355.20;;;;;;5070838;28;20039;-64
2023/06/17 01:19:53;;;;;;;17.63;14.23;;;410.50;2355.20;;;;;;5071079;28;20019;-63
2023/06/17 01:22:20;;;;;;;22.10;14.52;;;410.50;2355.20;;;;;;5069918;28;20405;-63
2023/06/17 01:24:49;;;;;;;17.92;14.88;;;410.50;2355.20;;;;;;5070300;28;20070;-64
2023/06/17 01:27:15;;;;;;;19.48;14.93;;;435.40;2355.20;;;;;;5070879;28;20028;-63
2023/06/17 01:29:41;;;;;;;18.13;13.80;;;410.50;2355.20;;;;;;5070830;28;20082;-63
2023/06/17 01:32:07;;;;;;;15.57;13.95;;;410.50;2355.20;;;;;;5070833;28;20032;-64
2023/06/17 01:34:38;;;;;;;16.70;14.73;;;410.50;2355.20;;;;;;5070726;28;20020;-62
2023/06/17 01:37:11;;;;;;;19.42;15.57;;;410.50;2355.20;;;;;;5070777;28;20071;-62
2023/06/17 01:39:42;;;;;;;20.65;14.82;;;410.50;2355.20;;;;;;5070770;28;20375;-63
2023/06/17 01:42:14;;;;;;;17.08;15.07;;;410.50;2355.20;;;;;;5070139;28;20090;-63
2023/06/17 01:44:42;;;;;;;18.53;14.63;;;410.50;2355.20;;;;;;5070646;28;20371;-62
2023/06/17 01:47:10;;;;;;;20.25;15.98;;;410.50;2355.20;;;;;;5070163;28;20036;-63
2023/06/17 01:49:37;;;;;;;17.85;14.73;;;410.50;1996.80;;;;;;5070514;28;20048;-63
2023/06/17 01:52:04;;;;;;;18.08;15.25;;;410.50;2355.20;;;;;;5070239;28;20048;-63
2023/06/17 01:54:30;;;;;;;23.88;17.50;;;435.20;2329.60;;;;;;5070428;28;20097;-62
2023/06/17 01:56:56;;;;;;;16.85;15.05;;;410.50;2355.20;;;;;;5069627;28;20471;-63
2023/06/17 01:59:21;;;;;;;18.98;15.02;;;435.20;2355.20;;;;;;5070132;28;20033;-63
2023/06/17 02:01:47;;;;;;;18.42;15.35;;;435.20;2355.20;;;;;;5069988;28;20020;-63
2023/06/17 02:04:13;;;;;;;23.02;16.00;;;435.20;2355.20;;;;;;5070130;28;20478;-62
2023/06/17 02:06:39;;;;;;;19.42;15.32;;;435.20;2355.20;;;;;;5070555;28;20050;-63
2023/06/17 02:09:06;;;;;;;16.83;14.20;;;435.20;2355.20;;;;;;5069869;28;20482;-62
2023/06/17 02:11:31;;;;;;;21.52;16.48;;;435.20;2048.00;;;;;;5070025;28;20111;-61
2023/06/17 02:13:57;;;;;;;19.15;16.08;;;435.30;2355.20;;;;;;5070027;28;20111;-62
2023/06/17 02:16:23;;;;;;;21.02;16.42;;;435.30;2355.20;;;;;;5051700;28;20471;-62
2023/06/17 02:18:53;;;;;;;17.95;15.43;;;435.30;2355.20;;;;;;5069745;28;20023;-63
2023/06/17 02:21:19;;;;;;;18.15;15.80;;;435.20;2355.20;;;;;;5069793;28;20036;-63
2023/06/17 02:23:49;;;;;;;19.08;15.23;;;435.30;2355.20;;;;;;5069655;28;20421;-62
2023/06/17 02:26:17;;;;;;;18.50;16.23;;;435.20;2355.20;;;;;;5069264;28;20033;-64
2023/06/17 02:28:43;;;;;;;19.90;15.68;;;435.30;2355.20;;;;;;5069847;28;20025;-63
2023/06/17 02:31:09;;;;;;;20.23;17.05;;;435.30;2355.20;;;;;;5069274;28;20054;-64
2023/06/17 02:33:35;;;;;;;20.23;14.77;;;435.20;2355.20;;;;;;5069066;28;20032;-62
2023/06/17 02:36:01;;;;;;;17.95;15.45;;;435.20;2355.20;;;;;;5069235;28;20037;-62
2023/06/17 02:38:28;;;;;;;19.60;15.90;;;435.30;2355.20;;;;;;5069223;28;20121;-62
2023/06/17 02:40:54;;;;;;;20.65;15.98;;;435.30;2252.80;;;;;;5069557;28;20028;-64
2023/06/17 02:43:20;;;;;;;21.75;17.05;;;435.30;2329.60;;;;;;5069373;28;20104;-64
2023/06/17 02:45:46;;;;;;;21.10;17.35;;;435.30;2355.20;;;;;;5069240;28;20162;-63
2023/06/17 02:48:12;;;;;;;20.52;16.45;;;435.20;2355.20;;;;;;5069460;28;20115;-63
2023/06/17 02:50:37;;;;;;;17.23;14.52;;;435.30;2355.20;;;;;;5069216;28;20032;-64
2023/06/17 02:53:04;;;;;;;18.00;15.10;;;435.30;2355.20;;;;;;5069578;28;20589;-63
2023/06/17 02:55:30;;;;;;;18.55;15.85;;;435.30;2355.20;;;;;;5069313;28;20466;-63
2023/06/17 02:57:56;;;;;;;19.60;15.80;;;435.30;2355.20;;;;;;5069108;28;20035;-63
2023/06/17 03:00:22;;;;;;;21.75;17.42;;;435.30;2355.20;;;;;;5069187;28;20025;-62
2023/06/17 03:02:48;;;;;;;20.83;17.30;;;435.30;2355.20;;;;;;5069063;28;20015;-63
2023/06/17 03:05:14;;;;;;;19.08;16.35;;;435.30;2355.20;;;;;;5068890;28;20111;-63
2023/06/17 03:07:40;;;;;;;19.27;15.93;;;435.30;2355.20;;;;;;5069084;28;20036;-63
2023/06/17 03:10:07;;;;;;;20.08;17.58;;;435.30;2355.20;;;;;;5069132;28;20024;-63
2023/06/17 03:12:33;;;;;;;18.48;15.43;;;435.30;2355.20;;;;;;5069220;28;20090;-63
2023/06/17 03:14:59;;;;;;;20.27;17.88;;;435.30;2355.20;;;;;;5068971;28;20024;-62
2023/06/17 03:17:24;;;;;;;22.23;17.13;;;435.30;2355.20;;;;;;5068784;28;20529;-64
2023/06/17 03:19:51;;;;;;;21.08;16.17;;;435.30;2355.20;;;;;;5069235;28;20021;-63
2023/06/17 03:22:16;;;;;;;21.00;16.48;;;435.30;2355.20;;;;;;5068834;28;20024;-64
2023/06/17 03:24:42;;;;;;;18.13;15.50;;;435.40;2355.20;;;;;;5068953;28;20103;-63
2023/06/17 03:27:08;;;;;;;17.40;14.90;;;435.40;2355.20;;;;;;5068685;28;20025;-63
2023/06/17 03:29:36;;;;;;;19.48;15.85;;;435.50;2355.20;;;;;;5068937;28;20070;-63
2023/06/17 03:32:02;;;;;;;20.67;17.33;;;435.50;2355.20;;;;;;5068919;28;20036;-62
2023/06/17 03:34:28;;;;;;;19.48;16.08;;;435.60;2355.20;;;;;;5068664;28;20021;-62
2023/06/17 03:36:56;;;;;;;19.50;16.88;;;435.60;2355.20;;;;;;5068469;28;20623;-61
2023/06/17 03:39:22;;;;;;;18.88;16.40;;;435.60;2355.20;;;;;;5068877;28;20047;-62
2023/06/17 03:41:48;;;;;;;20.10;16.65;;;435.60;2355.20;;;;;;5068738;28;20487;-63
2023/06/17 03:44:13;;;;;;;18.67;16.20;;;435.70;2355.20;;;;;;5068382;28;20043;-64
2023/06/17 03:46:39;;;;;;;19.70;16.75;;;435.80;2252.80;;;;;;5070714;28;20024;-63
2023/06/17 03:49:05;;;;;;;20.42;16.42;;;435.80;2355.20;;;;;;5072510;28;20016;-64
2023/06/17 03:51:31;;;;;;;18.48;16.42;;;435.80;2355.20;;;;;;5072541;28;20119;-63
2023/06/17 03:53:56;;;;;;;16.35;14.63;;;435.90;2355.20;;;;;;5072400;28;20024;-64
2023/06/17 03:56:22;;;;;;;18.10;14.68;;;435.90;2355.20;;;;;;5072676;28;20047;-62
2023/06/17 03:58:48;;;;;;;16.13;14.32;;;435.90;2355.20;;;;;;5072287;28;20096;-63
2023/06/17 04:01:14;;;;;;;19.23;16.63;;;435.90;2355.20;;;;;;5072705;28;20500;-64
2023/06/17 04:03:41;;;;;;;19.73;16.13;;;435.90;2355.20;;;;;;5072362;28;20367;-63
2023/06/17 04:06:08;;;;;;;19.20;15.35;;;435.90;2355.20;;;;;;5072258;28;20032;-64
2023/06/17 04:08:35;;;;;;;16.98;15.30;;;435.80;2355.20;;;;;;5072042;28;20504;-63
2023/06/17 04:11:02;;;;;;;19.15;16.00;;;435.80;2355.20;;;;;;5072345;28;20032;-63
2023/06/17 04:13:27;;;;;;;21.83;14.88;;;435.90;2355.20;;;;;;5071707;28;20035;-62
2023/06/17 04:15:53;;;;;;;17.73;15.90;;;435.90;2355.20;;;;;;5072331;28;20029;-62
2023/06/17 04:18:19;;;;;;;17.35;15.52;;;435.90;2355.20;;;;;;5072039;28;20091;-62
2023/06/17 04:20:44;;;;;;;21.75;16.20;;;435.90;2355.20;;;;;;5072017;28;20028;-65
2023/06/17 04:23:10;;;;;;;20.35;16.33;;;435.80;2355.20;;;;;;5071839;28;20403;-63
2023/06/17 04:25:36;;;;;;;16.58;14.85;;;435.90;2355.20;;;;;;5072096;28;20024;-63
2023/06/17 04:28:03;;;;;;;19.98;16.15;;;435.90;2355.20;;;;;;5072054;28;20032;-63
2023/06/17 04:30:30;;;;;;;18.92;15.60;;;435.90;2355.20;;;;;;5071388;28;20017;-62
2023/06/17 04:32:59;;;;;;;18.23;15.32;;;436.00;2355.20;;;;;;5071632;28;20470;-63
2023/06/17 04:35:26;;;;;;;20.55;15.43;;;436.00;2355.20;;;;;;5071493;28;20475;-63
2023/06/17 04:37:56;;;;;;;19.20;15.55;;;436.00;2355.20;;;;;;5071044;28;20530;-62
2023/06/17 04:40:25;;;;;;;20.23;16.35;;;436.10;2355.20;;;;;;5066163;28;20026;-61
2023/06/17 04:42:52;;;;;;;19.48;16.02;;;436.10;2355.20;;;;;;5065044;28;20074;-62
2023/06/17 04:45:18;;;;;;;19.75;16.52;;;436.10;2355.20;;;;;;5071695;28;20036;-61
2023/06/17 04:47:46;;;;;;;19.00;16.65;;;436.10;2355.20;;;;;;5072049;28;20107;-62
2023/06/17 04:50:15;;;;;;;18.80;16.80;;;436.10;2355.20;;;;;;5071616;28;20166;-62
2023/06/17 04:52:44;;;;;;;18.45;15.98;;;460.80;2380.80;;;;;;5071380;28;20482;-62
2023/06/17 04:55:13;;;;;;;17.95;15.82;;;460.90;2380.80;;;;;;5071541;28;20027;-62
2023/06/17 04:57:43;;;;;;;20.52;16.95;;;460.80;2380.80;;;;;;5071347;28;20103;-62
2023/06/17 05:00:12;;;;;;;28.85;17.65;;;460.90;2380.80;;;;;;5071271;28;20531;-62
2023/06/17 05:02:40;;;;;;;23.52;16.67;;;461.00;2380.80;;;;;;5071195;28;20016;-62
2023/06/17 05:05:07;;;;;;;18.83;14.75;;;461.10;2380.80;;;;;;5071086;28;20027;-62
2023/06/17 05:07:33;;;;;;;18.83;14.55;;;461.20;2380.80;;;;;;5071466;28;20045;-61
2023/06/17 05:09:59;;;;;;;20.42;16.50;;;461.30;2380.80;;;;;;5070430;28;20070;-63
2023/06/17 05:12:26;;;;;;;16.63;14.93;;;461.30;2380.80;;;;;;5069567;28;20037;-62
2023/06/17 05:14:51;;;;;;;15.55;13.80;;;461.40;2380.80;;;;;;5069632;28;20032;-62
2023/06/17 05:17:17;;;;;;;17.08;15.18;;;461.30;2380.80;;;;;;5050883;28;20443;-61
2023/06/17 05:19:43;;;;;;;22.52;16.88;;;461.30;2380.80;;;;;;5050347;28;20051;-63
2023/06/17 05:22:08;;;;;;;16.67;14.90;;;461.20;2380.80;;;;;;5066548;28;20467;-63
2023/06/17 05:24:34;;;;;;;18.42;14.68;;;461.20;2380.80;;;;;;5055093;28;20090;-62
2023/06/17 05:27:00;;;;;;;20.33;14.73;;;461.10;2380.80;;;;;;5056830;28;20043;-62
2023/06/17 05:29:25;;;;;;;17.95;13.57;;;461.00;2380.80;;;;;;5070427;28;20021;-63
2023/06/17 05:31:51;;;;;;;19.15;15.73;;;461.00;2380.80;;;;;;5070724;28;20573;-62
2023/06/17 05:34:17;;;;;;;18.15;14.23;;;461.00;2380.80;;;;;;5065616;28;20037;-62
2023/06/17 05:36:43;;;;;;;17.88;15.75;;;461.10;2380.80;;;;;;5050142;28;20036;-62
2023/06/17 05:39:09;;;;;;;17.58;14.65;;;461.10;2380.80;;;;;;5049658;28;20049;-62
2023/06/17 05:41:35;;;;;;;21.85;16.73;;;461.10;2380.80;;;;;;5050357;28;20028;-64
2023/06/17 05:44:00;;;;;;;17.13;15.32;;;461.10;2380.80;;;;;;5057297;28;20124;-62
2023/06/17 05:46:27;;;;;;;20.95;16.15;;;461.10;2380.80;;;;;;5064210;28;20052;-62
2023/06/17 05:48:53;;;;;;;19.70;13.75;;;461.10;2380.80;;;;;;5070138;28;20021;-63
2023/06/17 05:51:18;;;;;;;18.15;14.73;;;461.20;2380.80;;;;;;5070294;28;20040;-62
2023/06/17 05:53:44;;;;;;;17.02;14.63;;;461.30;2380.80;;;;;;5070308;28;20016;-62
2023/06/17 05:56:10;;;;;;;17.13;14.25;;;461.40;2380.80;;;;;;5070344;28;20107;-63
2023/06/17 05:58:36;;;;;;;17.15;14.10;;;461.40;2380.80;;;;;;5069567;28;20020;-62
2023/06/17 06:01:02;;;;;;;19.75;16.42;;;461.50;2380.80;;;;;;5070063;28;20036;-62
2023/06/17 06:03:28;;;;;;;18.98;14.52;;;461.70;2380.80;;;;;;5069753;28;20029;-62
2023/06/17 06:05:53;;;;;;;17.05;15.25;;;486.40;2380.80;;;;;;5068730;28;20632;-64
2023/06/17 06:08:19;;;;;;;16.05;14.38;;;486.50;2380.80;;;;;;5067587;28;20028;-62
2023/06/17 06:10:45;;;;;;;19.60;15.18;;;486.60;2380.80;;;;;;5068027;28;20073;-63
2023/06/17 06:13:11;;;;;;;15.20;13.60;;;486.70;2380.80;;;;;;5069618;28;20476;-63
2023/06/17 06:15:36;;;;;;;16.05;14.10;;;486.60;2380.80;;;;;;5069942;28;20028;-63
2023/06/17 06:18:02;;;;;;;20.45;13.43;;;486.70;2380.80;;;;;;5069889;28;20028;-62
2023/06/17 06:20:28;;;;;;;12.70;10.57;;;486.70;2380.80;;;;;;5069760;28;20023;-62
2023/06/17 06:22:54;;;;;;;15.18;12.27;;;486.70;2380.80;;;;;;5069485;28;20028;-63
2023/06/17 06:25:20;;;;;;;14.02;11.82;;;486.80;2380.80;;;;;;5069948;28;20024;-62
2023/06/17 06:27:49;;;;;;;19.42;12.65;;;486.90;2380.80;;;;;;5069142;28;20420;-63
2023/06/17 06:30:15;;;;;;;18.05;11.05;;;486.90;2380.80;;;;;;5069430;28;20112;-63
2023/06/17 06:32:41;;;;;;;13.93;11.52;;;487.00;2380.80;;;;;;5055959;28;20117;-62
2023/06/17 06:35:07;;;;;;;14.48;9.90;;;487.00;2380.80;;;;;;5068241;28;20103;-62
2023/06/17 06:37:32;;;;;;;12.27;10.77;;;486.80;2380.80;;;;;;5068736;28;20131;-61
2023/06/17 06:39:59;;;;;;;11.45;9.50;;;486.70;2380.80;;;;;;5068492;28;20047;-63
2023/06/17 06:42:25;;;;;;;18.58;11.30;;;486.50;2380.80;;;;;;5067239;28;20544;-62
2023/06/17 06:44:51;;;;;;;15.05;11.35;;;486.40;2380.80;;;;;;5069274;28;20032;-62
2023/06/17 06:47:18;;;;;;;12.63;11.07;;;486.50;2380.80;;;;;;5069051;28;20489;-63
2023/06/17 06:49:43;;;;;;;18.10;9.82;;;461.70;2380.80;;;;;;5069078;28;20060;-62
2023/06/17 06:52:09;;;;;;;14.98;10.27;;;486.40;2380.80;;;;;;5068205;28;20106;-63
2023/06/17 06:54:35;;;;;;;13.30;10.35;;;486.50;2380.80;;;;;;5069289;28;20025;-63
2023/06/17 06:57:01;;;;;;;13.05;10.82;;;486.40;2380.80;;;;;;5054162;28;20059;-63
2023/06/17 06:59:26;;;;;;;12.73;9.63;;;461.70;2380.80;;;;;;5062304;28;20025;-63
2023/06/17 07:01:52;;;;;;;13.10;10.63;;;461.70;2380.80;;;;;;5054205;28;20036;-62
2023/06/17 07:04:20;;;;;;;12.45;10.88;;;461.70;2380.80;;;;;;5048398;28;20024;-63
2023/06/17 07:06:46;;;;;;;15.45;11.35;;;461.70;2380.80;;;;;;5068717;28;20033;-65
2023/06/17 07:09:12;;;;;;;13.35;10.18;;;461.70;2380.80;;;;;;5068696;28;20081;-61
2023/06/17 07:11:38;;;;;;;12.30;10.05;;;461.60;2380.80;;;;;;5068682;28;20119;-63
2023/06/17 07:14:04;;;;;;;14.20;11.02;;;461.60;2380.80;;;;;;5061976;28;20024;-62
2023/06/17 07:16:30;;;;;;;40.97;36.60;;;461.70;2380.80;;;;;;5049891;28;20078;-61
2023/06/17 07:18:55;;;;;;;15.32;10.95;;;486.50;2380.80;;;;;;5064521;28;20115;-62
2023/06/17 07:21:21;;;;;;;14.93;11.05;;;486.70;2380.80;;;;;;5066998;28;20052;-62
2023/06/17 07:23:47;;;;;;;14.82;12.73;;;486.70;2380.80;;;;;;5067381;28;20481;-61
2023/06/17 07:26:12;;;;;;;18.27;12.77;;;486.70;2380.80;;;;;;5068473;28;20423;-61
2023/06/17 07:28:38;;;;;;;15.13;11.57;;;486.50;2380.80;;;;;;5068324;28;20016;-62
2023/06/17 07:31:04;;;;;;;13.70;10.65;;;486.40;2380.80;;;;;;5069443;28;20459;-62
2023/06/17 07:33:31;;;;;;;13.50;10.75;;;461.70;2380.80;;;;;;5068910;28;20505;-61
2023/06/17 07:35:57;;;;;;;12.73;10.88;;;461.70;2380.80;;;;;;5068354;28;20489;-62
2023/06/17 07:38:24;;;;;;;13.10;11.05;;;461.70;2380.80;;;;;;5067902;28;20049;-64
2023/06/17 07:40:50;;;;;;;16.63;12.27;;;461.70;2380.80;;;;;;5068133;28;20028;-61
2023/06/17 07:43:16;;;;;;;12.73;11.45;;;461.60;2380.80;;;;;;5067678;28;20501;-62
2023/06/17 07:45:42;;;;;;;12.43;11.05;;;461.60;2380.80;;;;;;5068656;28;20025;-61
2023/06/17 07:48:08;;;;;;;20.48;12.98;;;461.60;2380.80;;;;;;5067840;28;20062;-62
2023/06/17 07:50:33;;;;;;;13.82;11.43;;;461.70;2380.80;;;;;;5067824;28;20025;-62
2023/06/17 07:52:59;;;;;;;14.35;11.70;;;486.40;2380.80;;;;;;5068049;28;20033;-62
2023/06/17 07:55:26;;;;;;;13.80;11.52;;;486.50;2380.80;;;;;;5068401;28;20035;-62
2023/06/17 07:57:53;;;;;;;15.63;11.90;;;486.70;2380.80;;;;;;5068668;28;20088;-62
2023/06/17 08:00:19;;;;;;;13.02;10.48;;;486.80;2380.80;;;;;;5068717;28;20027;-62
2023/06/17 08:02:45;;;;;;;12.52;11.20;;;487.00;2380.80;;;;;;5068508;28;20020;-62
2023/06/17 08:05:10;;;;;;;15.77;10.95;;;487.10;2380.80;;;;;;5068456;28;20097;-62
2023/06/17 08:07:36;;;;;;;12.90;10.95;;;487.20;2380.80;;;;;;5068270;28;20025;-62
2023/06/17 08:10:03;;;;;;;13.68;10.52;;;487.30;2380.80;;;;;;5068497;28;20040;-61
2023/06/17 08:12:28;;;;;;;14.52;11.77;;;512.10;2380.80;;;;;;5068522;28;20382;-62
2023/06/17 08:14:54;;;;;;;11.82;10.27;;;512.20;2380.80;;;;;;5068678;28;20020;-61
2023/06/17 08:17:20;;;;;;;12.93;10.77;;;512.50;2380.80;;;;;;5068906;28;20082;-62
2023/06/17 08:19:46;;;;;;;12.70;10.95;;;512.40;2380.80;;;;;;5068076;28;20108;-62
2023/06/17 08:22:12;;;;;;;12.65;9.38;;;512.30;2380.80;;;;;;5068341;28;20107;-61
2023/06/17 08:24:37;;;;;;;13.23;10.88;;;512.30;2380.80;;;;;;5067953;28;20070;-62
2023/06/17 08:27:05;;;;;;;13.68;11.65;;;512.30;2380.80;;;;;;5056103;28;20086;-62
2023/06/17 08:29:32;;;;;;;14.45;10.18;;;512.30;2380.80;;;;;;5050205;28;20392;-61
2023/06/17 08:31:57;;;;;;;13.93;9.65;;;512.30;2380.80;;;;;;5048500;28;20497;-62
2023/06/17 08:34:23;;;;;;;14.35;10.00;;;512.30;2380.80;;;;;;5071211;28;20028;-62
2023/06/17 08:36:54;;;;;;;12.73;9.35;;;512.30;2380.80;;;;;;5071540;28;20033;-62
2023/06/17 08:39:20;;;;;;;11.43;9.82;;;512.20;2380.80;;;;;;5050564;28;20041;-61
2023/06/17 08:41:46;;;;;;;12.95;10.32;;;512.30;2380.80;;;;;;5051712;28;20068;-63
2023/06/17 08:44:13;;;;;;;11.25;10.05;;;512.40;2380.80;;;;;;5051857;28;20465;-61
2023/06/17 08:46:44;;;;;;;10.95;9.25;;;512.50;2380.80;;;;;;5051886;28;20114;-62
2023/06/17 08:49:12;;;;;;;10.60;9.50;;;512.50;2380.80;;;;;;5051815;28;20021;-61
2023/06/17 08:51:38;;;;;;;11.73;9.40;;;512.60;2380.80;;;;;;5051456;28;20071;-63
2023/06/17 08:54:04;;;;;;;11.88;9.45;;;512.70;2380.80;;;;;;5051394;28;20025;-63
2023/06/17 08:56:30;;;;;;;11.50;10.15;;;512.60;2380.80;;;;;;5051732;28;20025;-62
2023/06/17 08:58:56;;;;;;;12.93;10.02;;;;;;;;;;5049877;28;20548;-62
2023/06/17 09:01:26;;;;;;;13.02;9.43;;;512.80;2380.80;;;;;;5051444;28;20029;-61
2023/06/17 09:03:53;;;;;;;12.90;10.30;;;537.70;2406.40;;;;;;5043982;28;20038;-60
2023/06/17 09:06:24;;;;;;;14.73;10.88;;;538.30;2406.40;;;;;;5034326;28;20388;-61
2023/06/17 09:08:54;;;;;;;11.45;9.50;;;563.30;2432.00;;;;;;5047468;28;20021;-61
2023/06/17 09:11:25;;;;;;;13.18;9.45;;;563.60;2432.00;;;;;;5051365;28;20033;-61
2023/06/17 09:13:55;;;;;;;12.07;9.95;;;563.90;2432.00;;;;;;5044110;28;20080;-61
2023/06/17 09:16:25;;;;;;;12.63;10.20;;;563.90;2432.00;;;;;;5034277;28;20422;-62
2023/06/17 09:18:58;;;;;;;14.20;9.98;;;564.10;2432.00;;;;;;5048008;28;20414;-60
2023/06/17 09:21:25;;;;;;;11.57;10.27;;;589.10;2432.00;;;;;;5032763;28;20037;-62
2023/06/17 09:24:01;;;;;;;13.05;9.73;;;589.10;2432.00;;;;;;5029928;28;20025;-61
2023/06/17 09:26:34;;;;;;;12.93;9.43;;;589.00;2432.00;;;;;;5029951;28;20072;-62
2023/06/17 09:29:06;;;;;;;10.95;9.57;;;588.80;2432.00;;;;;;5030050;28;20443;-62
2023/06/17 09:31:33;;;;;;;15.43;10.48;;;564.10;2432.00;;;;;;5042751;28;20056;-64
2023/06/17 09:34:03;;;;;;;15.07;10.88;;;588.90;2432.00;;;;;;5029482;28;20084;-61
2023/06/17 09:36:30;;;;;;;12.15;10.77;;;588.90;2432.00;;;;;;5029982;28;20030;-64
2023/06/17 09:38:55;;;;;;;16.63;10.82;;;589.20;2432.00;;;;;;5046436;28;20047;-61
2023/06/17 09:41:23;;;;;;;13.25;11.38;;;589.30;2432.00;;;;;;5053707;28;20137;-66
2023/06/17 09:43:53;;;;;;;13.75;10.77;;;589.50;2432.00;;;;;;5048020;28;20028;-63
2023/06/17 09:46:29;;;;;;;14.82;11.82;;;589.50;2432.00;;;;;;5048982;28;20114;-65
2023/06/17 09:48:57;;;;;;;12.88;10.75;;;589.70;2432.00;;;;;;5051754;28;20067;-61
2023/06/17 09:51:23;;;;;;;16.08;10.50;;;614.50;2432.00;;;;;;5060082;28;20036;-62
2023/06/17 09:53:54;;;;;;;19.42;10.50;;;615.30;2432.00;;;;;;5069011;28;20027;-65
2023/06/17 09:56:20;;;;;;;14.25;10.13;;;615.30;2432.00;;;;;;5056590;28;20037;-63
2023/06/17 09:58:47;;;;;;;12.30;10.70;;;615.20;2432.00;;;;;;5048924;28;20025;-62
2023/06/17 10:01:13;;;;;;;14.45;11.25;;;640.00;2432.00;;;;;;5054204;28;20025;-61
2023/06/17 10:03:39;;;;;;;13.32;10.35;;;640.10;2432.00;;;;;;5052037;28;20021;-61
2023/06/17 10:06:13;;;;;;;14.57;11.25;;;;;;;;;;5049786;28;20040;-61
2023/06/17 10:08:48;;;;;;;14.10;10.50;;;640.60;2406.40;;;;;;5048550;28;20036;-63
2023/06/17 10:11:20;;;;;;;18.02;11.20;;;640.20;2380.80;;;;;;5057656;28;20029;-62
2023/06/17 10:14:11;;;;;;;14.23;9.95;;;640.40;2355.20;;;;;;5048549;28;20056;-61
2023/06/17 10:16:41;;;;;;;13.52;10.48;;;640.40;2355.20;;;;;;5049047;28;20399;-61
2023/06/17 10:19:09;;;;;;;12.70;10.32;;;;;;;;;;5048613;28;20031;-62
2023/06/17 10:21:39;;;;;;;13.60;10.30;;;665.70;2329.60;;;;;;5048856;28;20021;-60
2023/06/17 10:24:07;;;;;;;19.08;9.07;;;665.70;2304.00;;;;;;5052658;28;20528;-61
2023/06/17 10:26:33;;;;;;;12.07;8.63;;;665.60;2252.80;;;;;;5057713;28;20528;-60
2023/06/17 10:29:10;;;;;;;10.52;8.52;;;666.00;2329.60;;;;;;5069239;28;20086;-61
2023/06/17 10:31:40;;;;;;;12.60;8.63;;;640.80;2227.20;;;;;;5069047;28;20590;-61
2023/06/17 10:34:14;;;;;;;9.82;8.27;;;640.80;2227.20;;;;;;5068844;28;20063;-61
2023/06/17 10:36:40;;;;;;;13.02;8.55;;;640.90;2176.00;;;;;;5069428;28;20041;-63
2023/06/17 10:39:11;;;;;;;13.35;8.60;;;640.40;2201.60;;;;;;5068719;28;20063;-61
2023/06/17 10:41:40;;;;;;;11.75;8.15;;;640.20;2252.80;;;;;;5068591;28;20028;-59
2023/06/17 10:44:24;;;;;;;11.95;8.70;;;640.20;2227.20;;;;;;5069130;28;20021;-61
2023/06/17 10:46:52;;;;;;;12.27;8.88;;;640.30;2227.20;;;;;;5068976;28;20044;-62
2023/06/17 10:49:19;;;;;;;11.50;7.97;;;640.50;2252.80;;;;;;5068894;28;20048;-61
2023/06/17 10:51:55;;;;;;;11.93;8.77;;;640.30;2252.80;;;;;;5069728;28;20037;-61
2023/06/17 10:54:28;;;;;;;13.05;8.05;;;640.30;2227.20;;;;;;5069222;28;20458;-61
2023/06/17 10:56:54;;;;;;;8.82;7.97;;;640.60;2252.80;;;;;;5068987;28;20036;-63
2023/06/17 10:59:28;;;;;;;9.68;8.32;;;640.70;2252.80;;;;;;5069331;28;20017;-62
2023/06/17 11:02:01;;;;;;;;;;;640.50;2176.00;;;;;;5064743;28;20081;-61
2023/06/17 11:04:42;;;;;;;9.98;7.93;;;640.30;2176.00;;;;;;5068626;28;19919;-61
2023/06/17 11:07:08;;;;;;;8.32;7.50;;;640.40;2227.20;;;;;;5068238;28;20102;-62
2023/06/17 11:09:35;;;;;;;9.35;8.43;;;640.50;2201.60;;;;;;5069334;28;20016;-61
2023/06/17 11:12:02;;;;;;;15.18;8.75;;;640.70;2201.60;;;;;;5069093;28;20044;-61
2023/06/17 11:14:30;;;;;;;11.40;8.65;;;640.60;2176.00;;;;;;5068745;28;20542;-60
2023/06/17 11:16:56;;;;;;;10.55;8.15;;;640.40;2201.60;;;;;;5069020;28;20025;-62
2023/06/17 11:19:24;;;;;;;8.60;7.78;;;640.50;2201.60;;;;;;5068836;28;20103;-63
2023/06/17 11:21:57;;;;;;;10.77;8.35;;;640.40;2176.00;;;;;;5068812;28;20471;-61
2023/06/17 11:24:23;;;;;;;9.15;7.00;;;640.40;2201.60;;;;;;5068403;28;20103;-60
2023/06/17 11:26:49;;;;;;;10.88;8.55;;;640.10;2201.60;;;;;;5068854;28;20425;-60
2023/06/17 11:29:15;;;;;;;10.52;8.23;;;640.40;2201.60;;;;;;5068345;28;20017;-61
2023/06/17 11:31:41;;;;;;;10.60;7.95;;;640.40;2176.00;;;;;;5068776;28;20151;-63
2023/06/17 11:34:07;;;;;;;9.55;8.60;;;640.20;2201.60;;;;;;5068651;28;20017;-62
2023/06/17 11:36:35;;;;;;;9.63;8.50;;;640.30;2227.20;;;;;;5069356;28;20040;-61
2023/06/17 11:39:01;;;;;;;10.80;8.25;;;640.10;2201.60;;;;;;5068493;28;20103;-61
2023/06/17 11:41:27;;;;;;;12.25;8.25;;;640.00;2227.20;;;;;;5068567;28;20184;-61
2023/06/17 11:43:53;;;;;;;9.23;8.27;;;640.00;2201.60;;;;;;5069013;28;20031;-62
2023/06/17 11:46:23;;;;;;;8.10;7.28;;;615.30;2201.60;;;;;;5068927;28;20059;-61
2023/06/17 11:48:49;;;;;;;10.40;7.88;;;640.10;2201.60;;;;;;5055236;28;20038;-61
2023/06/17 11:51:19;;;;;;;13.95;8.52;;;640.00;2201.60;;;;;;5068763;28;20143;-61
2023/06/17 11:53:48;;;;;;;13.23;8.05;;;640.10;2227.20;;;;;;5067932;28;20024;-62
2023/06/17 11:56:20;;;;;;;11.40;8.40;;;640.30;2201.60;;;;;;5069087;28;20075;-62
2023/06/17 11:58:46;;;;;;;9.77;8.00;;;640.20;2252.80;;;;;;5068189;28;20021;-62
2023/06/17 12:01:13;;;;;;;11.23;9.27;;;640.50;2201.60;;;;;;5068884;28;20095;-62
2023/06/17 12:03:43;;;;;;;13.70;8.32;;;640.40;2252.80;;;;;;5068048;28;20116;-61